Time;durP1;ratioP1;P1;durP2;ratioP2;P2;SDS_P1;SDS_P2;PMS_P1;PMS_P2;Temp;Humidity;BMP_temperature;BMP_pressure;BME280_temperature;BME280_humidity;BME280_pressure;Samples;Min_cycle;Max_cycle;Signal;HPM_P1;HPM_P2
2022/09/05 00:02:41;;;;;;;24.20;15.27;;;;;;;15.50;88.42;101868.69;5029318;28;20029;-86
2022/09/05 00:05:38;;;;;;;28.85;16.00;;;;;;;15.46;87.69;101865.31;5029252;28;20075;-86
2022/09/05 00:08:10;;;;;;;25.00;15.25;;;;;;;15.41;88.70;101857.63;5028066;28;20109;-86
2022/09/05 00:10:48;;;;;;;27.10;15.60;;;;;;;15.37;88.46;101865.56;5026482;28;20033;-86
2022/09/05 00:13:22;;;;;;;24.80;15.75;;;;;;;15.38;89.29;101867.28;5028270;28;20029;-86
2022/09/05 00:16:30;;;;;;;23.10;15.27;;;;;;;15.34;89.29;101869.16;5028404;28;20533;-86
2022/09/05 00:19:36;;;;;;;28.02;15.05;;;;;;;15.34;89.11;101863.91;5005639;28;20076;-89
2022/09/05 00:22:04;;;;;;;25.00;15.80;;;;;;;15.32;89.64;101865.69;5028066;28;20075;-89
2022/09/05 00:24:51;;;;;;;25.60;15.88;;;;;;;15.30;90.19;101861.41;5028314;28;20022;-89
2022/09/05 00:27:33;;;;;;;26.48;15.80;;;;;;;15.26;89.64;101855.41;5019379;28;20040;-90
2022/09/05 00:30:05;;;;;;;25.48;15.82;;;;;;;15.22;89.15;101853.78;5026067;28;20021;-89
2022/09/05 00:32:49;;;;;;;25.17;15.43;;;;;;;15.20;89.95;101858.19;5025157;28;20060;-90
2022/09/05 00:35:42;;;;;;;27.13;16.17;;;;;;;15.17;89.23;101866.09;5031568;28;20033;-90
2022/09/05 00:38:20;;;;;;;26.50;15.70;;;;;;;15.15;89.52;101864.44;5031345;28;20052;-89
2022/09/05 00:40:57;;;;;;;25.45;15.60;;;;;;;15.09;89.50;101859.34;5023416;28;20036;-89
2022/09/05 00:43:32;;;;;;;24.35;15.15;;;;;;;15.06;91.15;101854.22;5029628;28;20029;-89
2022/09/05 00:46:16;;;;;;;26.20;15.45;;;;;;;15.02;90.46;101854.28;5028646;28;20486;-89
2022/09/05 00:48:51;;;;;;;25.73;14.52;;;;;;;15.04;90.65;101856.88;5032167;28;20026;-86
2022/09/05 00:51:39;;;;;;;;;;;;;;;15.08;87.57;101855.88;5028584;28;20084;-86
2022/09/05 00:54:30;;;;;;;23.23;14.57;;;;;;;15.01;90.40;101855.19;5028399;28;20350;-85
2022/09/05 00:57:01;;;;;;;26.52;15.30;;;;;;;14.99;90.90;101858.75;5018732;28;20060;-86
2022/09/05 01:00:08;;;;;;;27.50;15.18;;;;;;;14.96;90.66;101854.47;5024774;28;20029;-86
2022/09/05 01:02:52;;;;;;;27.65;15.50;;;;;;;14.93;90.99;101856.31;5031466;28;20028;-86
2022/09/05 01:05:26;;;;;;;24.90;15.63;;;;;;;14.94;91.07;101853.63;5032425;28;20029;-86
2022/09/05 01:08:10;;;;;;;;;;;;;;;14.98;88.08;101855.28;5031249;28;20053;-85
2022/09/05 01:10:52;;;;;;;26.08;15.18;;;;;;;14.90;90.02;101854.63;5032229;28;19916;-86
2022/09/05 01:13:33;;;;;;;25.30;14.05;;;;;;;14.89;90.63;101852.91;5028692;28;20071;-86
2022/09/05 01:16:10;;;;;;;25.60;15.57;;;;;;;14.86;90.73;101854.75;5032151;28;20048;-85
2022/09/05 01:18:59;;;;;;;25.05;15.80;;;;;;;14.85;90.62;101851.28;5025450;28;20040;-90
2022/09/05 01:21:52;;;;;;;25.98;15.50;;;;;;;14.83;90.17;101852.19;5032310;28;20048;-89
2022/09/05 01:24:39;;;;;;;24.30;15.18;;;;;;;14.77;90.73;101853.22;5032103;28;20037;-89
2022/09/05 01:27:26;;;;;;;24.98;15.63;;;;;;;14.76;90.98;101851.50;5027337;28;20025;-89
2022/09/05 01:30:03;;;;;;;24.55;15.57;;;;;;;14.76;91.54;101848.88;5041928;28;20043;-89
2022/09/05 01:32:33;;;;;;;25.98;16.75;;;;;;;14.68;91.44;101848.22;5030892;28;20032;-90
2022/09/05 01:35:35;;;;;;;24.52;15.50;;;;;;;14.72;90.80;101847.25;5031941;28;20041;-90
2022/09/05 01:38:33;;;;;;;23.77;15.13;;;;;;;14.65;90.53;101850.06;5029858;28;20049;-89
2022/09/05 01:41:03;;;;;;;24.08;15.30;;;;;;;14.61;91.26;101852.72;5031547;28;20135;-90
2022/09/05 01:43:34;;;;;;;25.88;15.27;;;;;;;14.62;91.74;101850.97;5046015;28;20031;-90
2022/09/05 01:46:17;;;;;;;25.63;15.85;;;;;;;14.57;91.61;101851.09;5030262;28;20109;-90
2022/09/05 01:48:56;;;;;;;22.45;15.38;;;;;;;14.54;92.11;101843.31;5041026;28;20115;-90
2022/09/05 01:52:03;;;;;;;26.25;15.95;;;;;;;14.50;91.02;101840.84;5031719;28;20504;-90
2022/09/05 01:54:50;;;;;;;21.08;14.85;;;;;;;14.51;91.06;101845.16;4998963;28;20155;-90
2022/09/05 01:57:34;;;;;;;26.23;15.18;;;;;;;14.46;91.42;101842.69;5029064;28;20044;-89
2022/09/05 02:00:06;;;;;;;29.45;16.85;;;;;;;14.47;91.40;101838.28;5036111;28;20087;-90
2022/09/05 02:03:09;;;;;;;25.42;16.30;;;;;;;14.43;91.03;101847.09;5023033;28;20033;-90
2022/09/05 02:06:01;;;;;;;25.05;15.63;;;;;;;14.39;91.27;101845.47;5028806;28;20039;-90
2022/09/05 02:08:50;;;;;;;27.65;16.70;;;;;;;14.41;91.55;101848.88;5029564;28;20113;-89
2022/09/05 02:11:16;;;;;;;24.63;15.68;;;;;;;14.35;91.64;101842.03;5030810;28;20371;-89
2022/09/05 02:13:51;;;;;;;27.58;16.30;;;;;;;14.34;92.01;101847.25;5038636;28;20481;-89
2022/09/05 02:16:33;;;;;;;24.35;15.77;;;;;;;14.35;92.26;101848.97;5031222;28;20024;-90
2022/09/05 02:19:14;;;;;;;24.63;15.25;;;;;;;14.35;91.57;101843.78;5028799;28;20107;-89
2022/09/05 02:22:06;;;;;;;25.92;15.73;;;;;;;14.34;91.71;101848.13;5028098;28;20029;-90
2022/09/05 02:24:31;;;;;;;24.90;15.65;;;;;;;14.33;92.43;101851.63;5030677;28;20040;-90
2022/09/05 02:27:15;;;;;;;23.80;15.23;;;;;;;14.31;92.33;101850.81;5022989;28;20112;-89
2022/09/05 02:29:45;;;;;;;25.83;16.13;;;;;;;14.31;92.42;101843.00;5032150;28;20044;-90
2022/09/05 02:32:30;;;;;;;23.88;15.52;;;;;;;14.29;92.52;101852.59;5028909;28;20037;-90
2022/09/05 02:35:28;;;;;;;28.88;16.50;;;;;;;14.33;92.59;101848.19;5025080;28;20123;-90
2022/09/05 02:38:02;;;;;;;27.52;16.60;;;;;;;14.28;92.84;101861.31;5033071;28;20039;-90
2022/09/05 02:40:39;;;;;;;27.80;15.98;;;;;;;14.27;92.60;101854.38;5029278;28;20070;-89
2022/09/05 02:43:18;;;;;;;26.10;16.50;;;;;;;14.24;92.40;101857.94;5027203;28;20037;-89
2022/09/05 02:45:58;;;;;;;24.88;16.48;;;;;;;14.22;92.59;101858.84;5028401;28;20104;-89
2022/09/05 02:48:36;;;;;;;24.38;16.55;;;;;;;14.21;92.73;101863.19;5037603;28;20135;-89
2022/09/05 02:51:25;;;;;;;27.98;16.85;;;;;;;14.20;92.75;101858.00;5029744;28;20076;-89
2022/09/05 02:53:57;;;;;;;26.75;16.80;;;;;;;14.14;93.25;101852.94;5030201;28;20048;-89
2022/09/05 02:56:36;;;;;;;24.55;16.55;;;;;;;14.14;93.05;101851.19;5029862;28;20532;-90
2022/09/05 02:59:11;;;;;;;23.52;16.10;;;;;;;14.14;93.59;101852.94;5028786;28;20045;-90
2022/09/05 03:02:18;;;;;;;26.15;16.10;;;;;;;14.15;93.50;101857.25;5028970;28;20029;-89
2022/09/05 03:04:49;;;;;;;26.13;16.83;;;;;;;14.10;93.52;101859.97;5029434;28;20029;-89
2022/09/05 03:07:20;;;;;;;27.98;17.08;;;;;;;14.08;93.72;101853.94;5029709;28;20471;-89
2022/09/05 03:09:56;;;;;;;28.60;16.60;;;;;;;14.03;93.36;101858.41;5028510;28;20540;-89
2022/09/05 03:12:46;;;;;;;26.33;16.45;;;;;;;13.98;93.12;101860.25;5027358;28;20080;-90
2022/09/05 03:15:36;;;;;;;27.77;17.02;;;;;;;13.95;93.08;101857.69;5041538;28;20132;-90
2022/09/05 03:18:29;;;;;;;28.60;17.58;;;;;;;13.95;94.29;101847.28;5031522;28;20032;-90
2022/09/05 03:21:13;;;;;;;41.40;18.38;;;;;;;13.94;93.27;101855.13;5028283;28;20623;-89
2022/09/05 03:24:14;;;;;;;36.05;18.65;;;;;;;13.91;92.99;101863.88;5038262;28;20139;-89
2022/09/05 03:27:09;;;;;;;35.95;18.13;;;;;;;13.85;94.09;101862.25;5024358;28;20063;-89
2022/09/05 03:30:05;;;;;;;32.45;18.23;;;;;;;13.87;93.19;101856.13;5026235;28;20109;-86
2022/09/05 03:32:47;;;;;;;32.85;19.20;;;;;;;13.83;94.06;101863.19;5025662;28;20124;-86
2022/09/05 03:35:31;;;;;;;33.17;18.38;;;;;;;13.82;93.78;101867.53;5032457;28;20052;-86
2022/09/05 03:38:29;;;;;;;32.03;17.95;;;;;;;13.77;93.97;101865.91;5032608;28;20078;-86
2022/09/05 03:41:33;;;;;;;32.45;17.38;;;;;;;13.82;94.28;101866.66;5030146;28;20120;-87
2022/09/05 03:44:23;;;;;;;34.85;18.75;;;;;;;13.79;94.22;101867.56;5025163;28;20029;-86
2022/09/05 03:47:22;;;;;;;42.25;19.25;;;;;;;13.77;93.86;101858.97;5020159;28;20057;-85
2022/09/05 03:49:58;;;;;;;56.67;20.00;;;;;;;13.72;94.40;101858.16;5027845;28;20153;-85
2022/09/05 03:52:39;;;;;;;58.45;21.00;;;;;;;13.72;94.45;101858.16;5027697;28;20025;-85
2022/09/05 03:55:16;;;;;;;63.28;21.27;;;;;;;13.70;94.48;101848.69;5044511;28;20125;-85
2022/09/05 03:58:19;;;;;;;79.88;20.70;;;;;;;13.70;94.62;101852.16;5042478;28;20045;-85
2022/09/05 04:01:13;;;;;;;64.68;20.23;;;;;;;13.66;93.96;101855.69;5039750;28;20041;-85
2022/09/05 04:03:50;;;;;;;54.03;20.10;;;;;;;13.66;94.62;101860.91;5026998;28;20029;-85
2022/09/05 04:06:45;;;;;;;54.55;21.02;;;;;;;13.66;94.41;101860.03;5028136;28;20033;-85
2022/09/05 04:09:25;;;;;;;44.53;20.50;;;;;;;13.64;94.97;101861.84;5029177;28;20013;-85
2022/09/05 04:11:56;;;;;;;47.47;19.98;;;;;;;13.66;95.35;101852.22;5027045;28;20517;-85
2022/09/05 04:14:45;;;;;;;61.30;21.10;;;;;;;13.62;95.18;101854.03;5027168;28;20060;-86
2022/09/05 04:17:42;;;;;;;70.03;21.45;;;;;;;13.60;94.82;101857.56;5028956;28;20072;-86
2022/09/05 04:20:14;;;;;;;60.25;21.52;;;;;;;13.56;94.93;101859.38;5029229;28;20025;-86
2022/09/05 04:22:58;;;;;;;50.08;20.60;;;;;;;13.54;94.75;101861.16;5028721;28;20112;-86
2022/09/05 04:25:41;;;;;;;48.15;21.50;;;;;;;13.53;95.21;101856.81;5026634;28;20052;-86
2022/09/05 04:28:18;;;;;;;48.03;21.30;;;;;;;13.53;95.50;101853.34;5027561;28;20029;-86
2022/09/05 04:30:57;;;;;;;47.85;21.33;;;;;;;13.48;93.85;101874.31;5030601;28;20088;-86
2022/09/05 04:33:41;;;;;;;43.30;20.52;;;;;;;13.47;94.93;101869.13;5027169;28;20025;-86
2022/09/05 04:36:16;;;;;;;43.40;20.63;;;;;;;13.47;95.13;101871.72;5048085;28;20029;-86
2022/09/05 04:38:43;;;;;;;41.58;20.60;;;;;;;13.48;95.05;101876.03;5030918;28;20362;-86
2022/09/05 04:41:20;;;;;;;47.90;22.15;;;;;;;13.42;95.37;101872.69;5021963;28;20064;-86
2022/09/05 04:44:00;;;;;;;44.33;21.05;;;;;;;13.42;95.39;101880.50;5030024;28;20414;-86
2022/09/05 04:46:34;;;;;;;42.97;22.83;;;;;;;13.44;95.50;101885.69;5029828;28;20056;-86
2022/09/05 04:49:14;;;;;;;43.50;22.65;;;;;;;13.42;95.74;101883.09;5032467;28;20033;-87
2022/09/05 04:51:42;;;;;;;44.08;22.55;;;;;;;13.43;96.14;101882.22;5032667;28;20040;-87
2022/09/05 04:54:17;;;;;;;46.65;22.80;;;;;;;13.42;95.79;101883.09;5032631;28;20091;-87
2022/09/05 04:56:48;;;;;;;41.70;23.02;;;;;;;13.44;96.55;101880.47;5030534;28;20427;-86
2022/09/05 04:59:22;;;;;;;41.78;21.83;;;;;;;13.39;96.57;101875.31;5033020;28;20390;-85
2022/09/05 05:01:54;;;;;;;44.78;22.92;;;;;;;13.44;96.54;101880.47;5032418;28;20033;-86
2022/09/05 05:04:24;;;;;;;57.33;24.88;;;;;;;13.43;96.54;101878.75;5030440;28;20024;-85
2022/09/05 05:07:01;;;;;;;57.60;24.60;;;;;;;13.42;96.14;101877.88;5032166;28;20190;-86
2022/09/05 05:09:33;;;;;;;56.58;24.45;;;;;;;13.43;96.69;101886.56;5031269;28;20049;-85
2022/09/05 05:12:07;;;;;;;57.95;24.58;;;;;;;13.40;96.64;101884.84;5032033;28;20080;-85
2022/09/05 05:14:51;;;;;;;59.72;25.17;;;;;;;13.43;96.14;101894.38;5030674;28;20032;-86
2022/09/05 05:17:25;;;;;;;60.65;25.15;;;;;;;13.44;96.96;101894.31;5030643;28;20029;-86
2022/09/05 05:19:53;;;;;;;;;;;;;;;13.49;94.29;101898.59;5030998;28;20025;-85
2022/09/05 05:22:18;;;;;;;55.22;23.15;;;;;;;13.46;96.42;101891.69;5031387;28;19913;-86
2022/09/05 05:24:48;;;;;;;71.03;25.27;;;;;;;13.43;96.47;101876.13;5029728;28;20022;-85
2022/09/05 05:27:58;;;;;;;65.95;25.88;;;;;;;13.47;95.88;101893.41;5036467;28;20036;-86
2022/09/05 05:30:27;;;;;;;62.72;25.33;;;;;;;13.45;96.13;101897.78;5027681;28;20113;-85
2022/09/05 05:32:55;;;;;;;65.32;25.92;;;;;;;13.45;96.80;101893.44;5030867;28;20083;-85
2022/09/05 05:35:29;;;;;;;70.10;27.45;;;;;;;13.48;97.15;101883.84;5029691;28;20025;-86
2022/09/05 05:38:00;;;;;;;;;;;;;;;13.53;94.35;101897.66;5031605;28;20048;-86
2022/09/05 05:40:28;;;;;;;69.97;24.27;;;;;;;13.48;96.08;101899.50;5028076;28;19917;-85
2022/09/05 05:43:13;;;;;;;53.30;23.60;;;;;;;13.46;96.84;101881.28;5030134;28;20632;-85
2022/09/05 05:45:39;;;;;;;67.30;25.67;;;;;;;13.48;96.61;101882.13;5030430;28;20034;-85
2022/09/05 05:48:26;;;;;;;55.28;25.67;;;;;;;13.50;96.41;101892.50;5026752;28;20053;-85
2022/09/05 05:51:02;;;;;;;65.60;26.15;;;;;;;13.55;96.86;101895.88;5025981;28;20028;-87
2022/09/05 05:53:52;;;;;;;69.10;26.48;;;;;;;13.57;96.66;101889.75;5030311;28;20790;-86
2022/09/05 05:57:02;;;;;;;63.85;26.52;;;;;;;13.63;97.21;101886.19;5030076;28;20025;-85
2022/09/05 06:00:06;;;;;;;74.90;27.42;;;;;;;13.66;96.80;101892.16;5010969;28;20034;-90
2022/09/05 06:03:09;;;;;;;64.70;26.67;;;;;;;13.71;97.19;101890.34;5010273;28;20180;-91
2022/09/05 06:06:06;;;;;;;65.28;27.33;;;;;;;13.77;97.09;101897.19;5019486;28;20207;-89
2022/09/05 06:09:17;;;;;;;60.58;26.23;;;;;;;13.78;96.75;101904.94;5018785;28;20090;-90
2022/09/05 06:12:41;;;;;;;54.75;27.55;;;;;;;13.85;97.09;101908.31;5022680;28;20120;-90
2022/09/05 06:15:25;;;;;;;63.88;27.42;;;;;;;13.93;97.45;101918.56;4966089;28;20384;-89
2022/09/05 06:17:53;;;;;;;58.67;28.40;;;;;;;13.97;97.32;101917.63;5023376;28;20036;-89
2022/09/05 06:20:55;;;;;;;56.20;28.30;;;;;;;14.02;97.66;101911.44;5029743;28;20176;-90
2022/09/05 06:23:58;;;;;;;57.17;27.45;;;;;;;14.07;96.97;101917.41;5019690;28;20025;-90
2022/09/05 06:27:08;;;;;;;49.50;25.85;;;;;;;14.11;96.88;101915.59;5029753;28;20519;-90
2022/09/05 06:29:54;;;;;;;52.42;27.65;;;;;;;14.20;98.12;101923.19;5028704;28;20036;-86
2022/09/05 06:32:28;;;;;;;48.65;26.98;;;;;;;14.25;97.03;101921.38;5028260;28;20037;-85
2022/09/05 06:35:12;;;;;;;63.00;31.02;;;;;;;14.31;97.48;101910.81;5020612;28;20040;-86
2022/09/05 06:37:56;;;;;;;57.63;31.33;;;;;;;14.41;98.23;101912.34;5029040;28;20020;-85
2022/09/05 06:40:37;;;;;;;55.28;32.10;;;;;;;14.48;99.47;101910.44;5027669;28;20648;-86
2022/09/05 06:43:18;;;;;;;54.90;30.90;;;;;;;14.57;97.57;101916.31;5028685;28;20087;-86
2022/09/05 06:46:00;;;;;;;53.60;31.70;;;;;;;14.67;97.47;101921.34;5023819;28;20017;-86
2022/09/05 06:48:30;;;;;;;50.70;31.33;;;;;;;14.75;98.20;101922.84;5026061;28;20049;-86
2022/09/05 06:51:12;;;;;;;56.50;32.72;;;;;;;14.86;98.36;101920.88;5027489;28;20041;-86
2022/09/05 06:53:55;;;;;;;59.10;34.90;;;;;;;15.00;100.00;101920.53;5028158;28;20025;-85
2022/09/05 06:56:54;;;;;;;54.42;33.67;;;;;;;15.10;98.75;101918.53;5022526;28;20486;-85
2022/09/05 06:59:36;;;;;;;62.17;34.85;;;;;;;15.24;98.72;101921.66;5017460;28;20018;-90
2022/09/05 07:02:13;;;;;;;64.18;35.60;;;;;;;15.39;99.23;101922.13;5025904;28;21027;-89
2022/09/05 07:04:42;;;;;;;61.15;35.05;;;;;;;15.53;98.11;101918.31;5029615;28;20017;-89
2022/09/05 07:07:22;;;;;;;59.22;36.55;;;;;;;15.67;98.45;101916.19;5028769;28;20421;-89
2022/09/05 07:09:59;;;;;;;57.13;34.65;;;;;;;15.80;99.14;101914.94;5028754;28;20040;-90
2022/09/05 07:12:34;;;;;;;55.92;35.70;;;;;;;15.95;97.60;101916.25;5030029;28;20029;-91
2022/09/05 07:15:15;;;;;;;55.42;32.75;;;;;;;16.03;98.14;101923.00;5035948;28;20029;-90
2022/09/05 07:18:07;;;;;;;58.35;35.25;;;;;;;16.14;97.28;101920.06;5030022;28;20025;-90
2022/09/05 07:21:04;;;;;;;57.17;35.10;;;;;;;16.26;98.78;101921.44;5028242;28;20052;-88
2022/09/05 07:23:45;;;;;;;59.35;36.42;;;;;;;16.38;98.08;101924.53;5027192;28;20056;-89
2022/09/05 07:26:12;;;;;;;52.75;34.08;;;;;;;16.49;97.77;101930.31;5028409;28;20017;-89
2022/09/05 07:28:42;;;;;;;60.70;35.83;;;;;;;16.59;96.83;101920.41;5026623;28;20025;-86
2022/09/05 07:31:15;;;;;;;65.35;36.08;;;;;;;16.68;97.49;101922.78;5027663;28;20413;-85
2022/09/05 07:33:44;;;;;;;55.05;34.58;;;;;;;16.71;97.02;101919.22;5026535;28;20036;-86
2022/09/05 07:36:16;;;;;;;55.15;36.38;;;;;;;16.81;99.53;101923.25;5027015;28;20454;-86
2022/09/05 07:38:43;;;;;;;56.83;34.03;;;;;;;16.84;98.81;101925.78;5028659;28;20017;-86
2022/09/05 07:41:19;;;;;;;51.95;33.00;;;;;;;16.90;97.65;101928.19;5029238;28;20033;-86
2022/09/05 07:43:46;;;;;;;52.28;34.08;;;;;;;16.99;97.19;101930.47;5031458;28;20030;-86
2022/09/05 07:46:22;;;;;;;52.72;33.33;;;;;;;17.06;97.27;101926.75;5029287;28;20029;-86
2022/09/05 07:48:58;;;;;;;50.55;33.03;;;;;;;17.16;97.20;101935.19;5028384;28;20061;-86
2022/09/05 07:51:29;;;;;;;51.10;32.60;;;;;;;17.28;97.53;101934.75;5028567;28;20045;-86
2022/09/05 07:54:04;;;;;;;51.17;30.10;;;;;;;17.43;94.61;101928.13;5031145;28;20607;-86
2022/09/05 07:56:49;;;;;;;45.25;29.40;;;;;;;17.58;92.79;101941.56;5030020;28;20037;-86
2022/09/05 07:59:16;;;;;;;46.53;27.38;;;;;;;17.72;92.07;101938.50;5028570;28;20021;-90
2022/09/05 08:01:44;;;;;;;47.33;26.88;;;;;;;17.85;93.11;101939.75;5036184;28;20037;-90
2022/09/05 08:04:28;;;;;;;47.58;26.55;;;;;;;17.95;92.81;101935.00;5025411;28;21896;-90
2022/09/05 08:07:32;;;;;;;41.13;25.60;;;;;;;18.06;92.62;101936.34;5026376;28;20041;-90
2022/09/05 08:10:05;;;;;;;37.15;22.85;;;;;;;18.15;93.02;101937.78;5023760;28;20064;-90
2022/09/05 08:12:36;;;;;;;37.83;24.40;;;;;;;18.30;93.57;101947.69;5025572;28;20032;-90
2022/09/05 08:15:14;;;;;;;35.30;20.75;;;;;;;18.48;85.50;101941.75;5028041;28;20033;-89
2022/09/05 08:17:59;;;;;;;36.17;20.88;;;;;;;18.83;84.62;101936.91;5032920;28;20017;-90
2022/09/05 08:20:32;;;;;;;33.35;21.13;;;;;;;19.19;86.14;101940.63;5016728;28;20033;-90
2022/09/05 08:23:12;;;;;;;40.53;21.63;;;;;;;19.63;87.93;101941.38;5027792;28;20080;-90
2022/09/05 08:25:48;;;;;;;35.85;21.90;;;;;;;20.09;87.82;101942.81;5028274;28;20029;-90
2022/09/05 08:28:23;;;;;;;35.63;21.67;;;;;;;20.52;86.07;101940.84;5028765;28;20048;-90
2022/09/05 08:30:59;;;;;;;34.88;21.52;;;;;;;20.95;79.07;101938.75;5032440;28;20017;-90
2022/09/05 08:33:32;;;;;;;34.70;20.98;;;;;;;21.29;83.52;101944.06;5016606;28;20036;-90
2022/09/05 08:36:00;;;;;;;36.42;20.83;;;;;;;21.50;81.59;101936.81;5028388;28;20022;-90
2022/09/05 08:38:28;;;;;;;36.22;19.77;;;;;;;21.81;82.58;101944.88;5027014;28;20053;-90
2022/09/05 08:41:03;;;;;;;36.05;19.92;;;;;;;22.08;78.47;101939.06;5016777;28;20021;-90
2022/09/05 08:43:28;;;;;;;36.15;20.67;;;;;;;22.35;80.00;101937.56;5037102;28;20448;-90
2022/09/05 08:46:06;;;;;;;37.03;20.33;;;;;;;22.60;75.50;101937.03;5035385;28;20532;-90
2022/09/05 08:49:02;;;;;;;36.45;20.40;;;;;;;22.77;78.84;101936.97;5028988;28;20128;-90
2022/09/05 08:51:40;;;;;;;35.35;20.52;;;;;;;22.93;79.65;101937.75;5018505;28;20034;-90
2022/09/05 08:54:21;;;;;;;34.92;19.90;;;;;;;23.07;75.49;101942.25;5022859;28;20037;-91
2022/09/05 08:56:56;;;;;;;31.75;19.25;;;;;;;23.18;70.74;101939.84;5027840;28;20095;-90
2022/09/05 08:59:42;;;;;;;29.63;18.33;;;;;;;23.31;76.83;101935.53;5020653;28;20033;-90
2022/09/05 09:02:25;;;;;;;33.28;19.17;;;;;;;23.39;74.34;101930.63;5024926;28;20402;-90
2022/09/05 09:05:11;;;;;;;36.80;19.20;;;;;;;23.59;74.70;101925.03;5025934;28;20513;-90
2022/09/05 09:07:55;;;;;;;33.20;19.30;;;;;;;23.88;66.82;101923.19;5025472;28;20025;-90
2022/09/05 09:10:44;;;;;;;31.50;18.83;;;;;;;24.14;69.37;101918.09;5037807;28;20039;-89
2022/09/05 09:13:27;;;;;;;32.60;16.77;;;;;;;24.31;66.06;101916.09;5018422;28;20156;-89
2022/09/05 09:16:29;;;;;;;26.20;14.87;;;;;;;24.51;67.02;101912.16;5029675;28;20052;-91
2022/09/05 09:19:22;;;;;;;28.63;15.07;;;;;;;24.63;67.15;101913.16;5031522;28;20329;-90
2022/09/05 09:21:59;;;;;;;24.75;12.98;;;;;;;24.77;61.22;101918.38;5031750;28;20112;-90
2022/09/05 09:24:40;;;;;;;25.58;13.10;;;;;;;24.91;60.65;101913.06;5032255;28;20612;-90
2022/09/05 09:27:25;;;;;;;24.95;11.68;;;;;;;24.98;57.50;101911.69;5030290;28;20031;-91
2022/09/05 09:29:52;;;;;;;25.05;9.43;;;;;;;25.11;56.09;101906.44;5030780;28;20604;-91
2022/09/05 09:32:22;;;;;;;22.42;11.13;;;;;;;25.32;54.19;101906.75;5034263;28;20347;-90
2022/09/05 09:34:54;;;;;;;19.02;10.18;;;;;;;25.40;53.82;101904.41;5029746;28;20084;-90
2022/09/05 09:37:32;;;;;;;17.77;9.85;;;;;;;25.52;54.50;101904.41;5029882;28;20031;-91
2022/09/05 09:40:00;;;;;;;22.13;8.85;;;;;;;25.69;52.35;101900.63;5030672;28;20114;-87
2022/09/05 09:43:00;;;;;;;20.83;9.50;;;;;;;25.80;53.68;101892.72;5031090;28;20116;-87
2022/09/05 09:45:55;;;;;;;16.17;8.43;;;;;;;25.98;55.91;101895.91;5027541;28;20069;-87
2022/09/05 09:48:49;;;;;;;15.15;8.07;;;;;;;26.12;56.30;101900.22;5031839;28;20045;-87
2022/09/05 09:51:42;;;;;;;12.85;6.53;;;;;;;26.11;54.49;101895.88;5027329;28;20075;-87
2022/09/05 09:54:48;;;;;;;12.07;6.63;;;;;;;26.19;53.29;101896.16;5026717;28;20160;-87
2022/09/05 09:57:22;;;;;;;9.95;6.00;;;;;;;26.21;52.23;101883.59;5032246;28;20497;-87
2022/09/05 09:59:47;;;;;;;11.30;6.53;;;;;;;26.37;49.14;101889.53;5031976;28;20592;-87
2022/09/05 10:02:54;;;;;;;11.00;5.97;;;;;;;26.43;52.27;101889.06;5028425;28;20032;-87
2022/09/05 10:05:51;;;;;;;13.23;5.60;;;;;;;26.34;50.73;101884.44;5029144;28;20761;-87
2022/09/05 10:08:46;;;;;;;10.57;5.25;;;;;;;26.17;48.26;101882.13;5026787;28;20026;-87
2022/09/05 10:11:19;;;;;;;9.98;5.00;;;;;;;26.26;48.93;101877.03;5020907;28;20029;-87
2022/09/05 10:13:59;;;;;;;8.35;4.10;;;;;;;26.39;45.65;101874.31;5021471;28;20045;-87
2022/09/05 10:16:25;;;;;;;9.98;4.30;;;;;;;26.55;43.33;101868.69;5022844;28;20490;-88
2022/09/05 10:19:34;;;;;;;8.07;4.37;;;;;;;26.65;47.72;101870.56;5029147;28;20029;-88
2022/09/05 10:22:26;;;;;;;9.23;3.90;;;;;;;26.88;47.58;101868.00;5029382;28;20068;-87
2022/09/05 10:25:16;;;;;;;7.47;3.78;;;;;;;26.99;47.23;101858.25;5027960;28;20040;-87
2022/09/05 10:28:04;;;;;;;9.02;3.58;;;;;;;27.01;43.90;101860.81;5022979;28;20033;-88
2022/09/05 10:30:43;;;;;;;6.88;3.50;;;;;;;27.13;41.31;101857.19;5028756;28;20090;-87
2022/09/05 10:33:28;;;;;;;7.50;3.70;;;;;;;27.09;45.00;101855.75;5028933;28;20486;-87
2022/09/05 10:36:01;;;;;;;8.98;3.28;;;;;;;27.09;42.32;101856.56;5023972;28;20032;-87
2022/09/05 10:38:43;;;;;;;3.72;3.13;;;;;;;27.03;42.62;101854.38;5029837;28;20096;-87
2022/09/05 10:41:17;;;;;;;5.03;3.15;;;;;;;27.04;42.81;101848.09;5031040;28;20116;-87
2022/09/05 10:43:49;;;;;;;5.78;3.10;;;;;;;26.99;41.95;101836.97;5028772;28;20390;-87
2022/09/05 10:46:55;;;;;;;6.22;3.05;;;;;;;27.15;43.93;101847.28;5030382;28;20099;-87
2022/09/05 10:49:25;;;;;;;4.90;3.03;;;;;;;27.11;40.92;101841.31;5029398;28;20034;-88
2022/09/05 10:52:00;;;;;;;7.82;3.10;;;;;;;27.13;40.80;101841.22;5028792;28;20045;-88
2022/09/05 10:54:45;;;;;;;6.72;3.30;;;;;;;27.24;39.82;101843.03;5027297;28;20456;-87
2022/09/05 10:57:13;;;;;;;4.22;3.10;;;;;;;27.31;41.15;101846.91;5026386;28;20113;-87
2022/09/05 10:59:58;;;;;;;4.22;3.05;;;;;;;27.39;39.07;101837.38;5029241;28;20478;-87
2022/09/05 11:02:26;;;;;;;4.00;2.80;;;;;;;27.46;41.82;101835.91;5028986;28;20021;-88
2022/09/05 11:05:05;;;;;;;4.63;2.95;;;;;;;27.49;39.70;101830.34;5041090;28;20517;-87
2022/09/05 11:07:40;;;;;;;5.05;3.08;;;;;;;27.43;40.50;101830.81;5029714;28;20548;-87
2022/09/05 11:10:19;;;;;;;6.00;3.50;;;;;;;27.54;40.60;101834.50;5029951;28;20033;-87
2022/09/05 11:13:09;;;;;;;5.53;2.97;;;;;;;27.63;40.26;101831.09;5030680;28;20108;-87
2022/09/05 11:15:59;;;;;;;5.72;2.70;;;;;;;27.74;39.90;101831.09;5030563;28;20493;-87
2022/09/05 11:18:42;;;;;;;3.53;2.88;;;;;;;27.69;39.26;101828.78;5029571;28;20544;-87
2022/09/05 11:21:13;;;;;;;5.00;2.90;;;;;;;27.64;38.20;101825.63;5027302;28;20040;-88
2022/09/05 11:23:52;;;;;;;5.30;2.70;;;;;;;27.65;39.49;101829.13;5026261;28;20518;-88
2022/09/05 11:26:33;;;;;;;5.07;2.80;;;;;;;27.77;37.48;101822.84;5028341;28;20029;-88
2022/09/05 11:29:11;;;;;;;6.47;2.92;;;;;;;27.82;38.75;101815.34;5029019;28;20029;-88
2022/09/05 11:31:54;;;;;;;5.78;2.70;;;;;;;27.70;38.83;101817.16;5029681;28;20409;-87
2022/09/05 11:34:53;;;;;;;4.72;2.75;;;;;;;27.72;40.49;101817.03;5036522;28;20029;-87
2022/09/05 11:37:44;;;;;;;4.10;2.90;;;;;;;27.71;39.25;101821.50;5024083;28;20041;-87
2022/09/05 11:40:30;;;;;;;5.45;2.80;;;;;;;27.85;38.32;101820.41;5029551;28;20013;-90
2022/09/05 11:43:28;;;;;;;5.72;2.90;;;;;;;27.84;38.05;101816.06;5027394;28;20060;-91
2022/09/05 11:46:14;;;;;;;8.80;3.03;;;;;;;27.77;37.05;101812.19;5029631;28;20036;-90
2022/09/05 11:49:06;;;;;;;5.53;2.72;;;;;;;27.81;39.05;101816.28;5039500;28;20032;-92
2022/09/05 11:51:47;;;;;;;9.45;3.00;;;;;;;27.85;36.85;101821.25;5028982;28;20086;-91
2022/09/05 11:54:31;;;;;;;6.13;2.97;;;;;;;27.94;36.74;101808.16;5029098;28;20029;-91
2022/09/05 11:57:14;;;;;;;6.20;2.97;;;;;;;28.00;38.69;101805.81;5029816;28;20116;-91
2022/09/05 12:00:07;;;;;;;4.53;2.85;;;;;;;28.06;38.96;101812.47;5029790;28;20037;-90
2022/09/05 12:02:59;;;;;;;4.82;3.00;;;;;;;28.03;39.15;101810.91;5031199;28;20093;-91
2022/09/05 12:05:34;;;;;;;7.18;3.13;;;;;;;27.96;38.11;101807.06;5033245;28;20648;-91
2022/09/05 12:08:02;;;;;;;6.03;2.90;;;;;;;27.99;36.85;101804.13;5027398;28;20029;-91
2022/09/05 12:10:45;;;;;;;9.40;3.10;;;;;;;27.98;37.50;101802.44;5041802;28;20025;-91
2022/09/05 12:13:47;;;;;;;9.95;3.40;;;;;;;27.96;39.23;101801.72;5026750;28;20037;-90
2022/09/05 12:16:45;;;;;;;6.85;2.90;;;;;;;27.99;38.13;101793.47;5008174;28;20125;-91
2022/09/05 12:19:31;;;;;;;5.70;3.15;;;;;;;28.08;35.86;101797.19;5033726;28;20033;-91
2022/09/05 12:22:27;;;;;;;6.43;3.20;;;;;;;28.06;38.44;101800.00;5029173;28;20033;-91
2022/09/05 12:25:21;;;;;;;30.98;4.78;;;;;;;28.01;38.72;101790.69;5029273;28;20375;-91